sensor_id;sensor_type;location;lat;lon;timestamp;P1;durP1;ratioP1;P2;durP2;ratioP2
35891;SDS011;21993;42.672;23.296;2022-07-10T00:00:26;13.20;;;11.23;;
35891;SDS011;21993;42.672;23.296;2022-07-10T00:02:53;12.83;;;11.53;;
35891;SDS011;21993;42.672;23.296;2022-07-10T00:05:18;12.53;;;10.90;;
35891;SDS011;21993;42.672;23.296;2022-07-10T00:07:44;13.20;;;11.60;;
35891;SDS011;21993;42.672;23.296;2022-07-10T00:10:10;14.17;;;12.60;;
35891;SDS011;21993;42.672;23.296;2022-07-10T00:12:36;13.73;;;12.23;;
35891;SDS011;21993;42.672;23.296;2022-07-10T00:15:05;13.73;;;12.17;;
35891;SDS011;21993;42.672;23.296;2022-07-10T00:17:31;13.27;;;11.93;;
35891;SDS011;21993;42.672;23.296;2022-07-10T00:19:57;12.43;;;11.13;;
35891;SDS011;21993;42.672;23.296;2022-07-10T00:22:23;14.00;;;12.50;;
35891;SDS011;21993;42.672;23.296;2022-07-10T00:24:49;13.27;;;11.97;;
35891;SDS011;21993;42.672;23.296;2022-07-10T00:27:15;16.17;;;12.20;;
35891;SDS011;21993;42.672;23.296;2022-07-10T00:29:42;14.20;;;12.00;;
35891;SDS011;21993;42.672;23.296;2022-07-10T00:32:07;13.50;;;12.10;;
35891;SDS011;21993;42.672;23.296;2022-07-10T00:34:33;15.00;;;11.73;;
35891;SDS011;21993;42.672;23.296;2022-07-10T00:36:58;14.70;;;12.20;;
35891;SDS011;21993;42.672;23.296;2022-07-10T00:39:25;13.53;;;11.90;;
35891;SDS011;21993;42.672;23.296;2022-07-10T00:41:50;14.10;;;12.10;;
35891;SDS011;21993;42.672;23.296;2022-07-10T00:44:16;14.17;;;12.50;;
35891;SDS011;21993;42.672;23.296;2022-07-10T00:46:44;14.40;;;12.90;;
35891;SDS011;21993;42.672;23.296;2022-07-10T00:49:10;14.37;;;11.93;;
35891;SDS011;21993;42.672;23.296;2022-07-10T00:51:36;13.80;;;12.37;;
35891;SDS011;21993;42.672;23.296;2022-07-10T00:54:02;14.23;;;12.20;;
35891;SDS011;21993;42.672;23.296;2022-07-10T00:56:29;13.73;;;12.20;;
35891;SDS011;21993;42.672;23.296;2022-07-10T00:58:56;13.17;;;11.87;;
35891;SDS011;21993;42.672;23.296;2022-07-10T01:01:22;12.77;;;11.37;;
35891;SDS011;21993;42.672;23.296;2022-07-10T01:03:47;14.37;;;11.43;;
35891;SDS011;21993;42.672;23.296;2022-07-10T01:06:13;13.23;;;11.83;;
35891;SDS011;21993;42.672;23.296;2022-07-10T01:08:40;11.90;;;10.70;;
35891;SDS011;21993;42.672;23.296;2022-07-10T01:11:06;13.13;;;11.50;;
35891;SDS011;21993;42.672;23.296;2022-07-10T01:13:33;13.17;;;11.60;;
35891;SDS011;21993;42.672;23.296;2022-07-10T01:15:58;12.87;;;11.60;;
35891;SDS011;21993;42.672;23.296;2022-07-10T01:18:25;12.50;;;11.20;;
35891;SDS011;21993;42.672;23.296;2022-07-10T01:20:51;13.03;;;11.73;;
35891;SDS011;21993;42.672;23.296;2022-07-10T01:23:17;14.80;;;11.27;;
35891;SDS011;21993;42.672;23.296;2022-07-10T01:25:43;13.10;;;11.80;;
35891;SDS011;21993;42.672;23.296;2022-07-10T01:28:08;15.30;;;12.17;;
35891;SDS011;21993;42.672;23.296;2022-07-10T01:30:34;16.57;;;12.57;;
35891;SDS011;21993;42.672;23.296;2022-07-10T01:32:59;12.53;;;11.27;;
35891;SDS011;21993;42.672;23.296;2022-07-10T01:35:25;14.07;;;11.43;;
35891;SDS011;21993;42.672;23.296;2022-07-10T01:37:53;12.70;;;11.40;;
35891;SDS011;21993;42.672;23.296;2022-07-10T01:40:18;12.47;;;11.20;;
35891;SDS011;21993;42.672;23.296;2022-07-10T01:42:44;13.20;;;11.27;;
35891;SDS011;21993;42.672;23.296;2022-07-10T01:45:11;12.17;;;10.67;;
35891;SDS011;21993;42.672;23.296;2022-07-10T01:47:36;11.77;;;10.23;;
35891;SDS011;21993;42.672;23.296;2022-07-10T01:50:02;12.37;;;11.07;;
35891;SDS011;21993;42.672;23.296;2022-07-10T01:52:28;14.40;;;10.67;;
35891;SDS011;21993;42.672;23.296;2022-07-10T01:54:54;12.53;;;10.83;;
35891;SDS011;21993;42.672;23.296;2022-07-10T01:57:20;11.63;;;10.50;;
35891;SDS011;21993;42.672;23.296;2022-07-10T01:59:45;13.67;;;11.10;;
35891;SDS011;21993;42.672;23.296;2022-07-10T02:02:11;12.67;;;10.77;;
35891;SDS011;21993;42.672;23.296;2022-07-10T02:04:36;12.43;;;10.83;;
35891;SDS011;21993;42.672;23.296;2022-07-10T02:09:38;12.57;;;10.87;;
35891;SDS011;21993;42.672;23.296;2022-07-10T02:12:04;13.93;;;10.20;;
35891;SDS011;21993;42.672;23.296;2022-07-10T02:14:30;11.97;;;10.73;;
35891;SDS011;21993;42.672;23.296;2022-07-10T02:16:56;11.77;;;10.03;;
35891;SDS011;21993;42.672;23.296;2022-07-10T02:19:22;11.83;;;10.63;;
35891;SDS011;21993;42.672;23.296;2022-07-10T02:21:48;11.33;;;10.23;;
35891;SDS011;21993;42.672;23.296;2022-07-10T02:24:13;13.40;;;12.00;;
35891;SDS011;21993;42.672;23.296;2022-07-10T02:26:39;12.37;;;10.77;;
35891;SDS011;21993;42.672;23.296;2022-07-10T02:29:04;15.37;;;10.67;;
35891;SDS011;21993;42.672;23.296;2022-07-10T02:31:30;16.07;;;10.97;;
35891;SDS011;21993;42.672;23.296;2022-07-10T02:33:55;12.00;;;10.70;;
35891;SDS011;21993;42.672;23.296;2022-07-10T02:36:20;12.53;;;10.57;;
35891;SDS011;21993;42.672;23.296;2022-07-10T02:38:46;11.83;;;10.63;;
35891;SDS011;21993;42.672;23.296;2022-07-10T02:41:12;12.50;;;10.90;;
35891;SDS011;21993;42.672;23.296;2022-07-10T02:43:37;11.87;;;10.67;;
35891;SDS011;21993;42.672;23.296;2022-07-10T02:46:03;11.57;;;9.97;;
35891;SDS011;21993;42.672;23.296;2022-07-10T02:48:28;12.30;;;11.07;;
35891;SDS011;21993;42.672;23.296;2022-07-10T02:50:54;13.73;;;10.57;;
35891;SDS011;21993;42.672;23.296;2022-07-10T02:53:19;11.63;;;10.43;;
35891;SDS011;21993;42.672;23.296;2022-07-10T02:55:45;15.53;;;10.37;;
35891;SDS011;21993;42.672;23.296;2022-07-10T02:58:10;13.23;;;9.77;;
35891;SDS011;21993;42.672;23.296;2022-07-10T03:00:36;11.03;;;9.93;;
35891;SDS011;21993;42.672;23.296;2022-07-10T03:03:02;12.17;;;10.33;;
35891;SDS011;21993;42.672;23.296;2022-07-10T03:05:27;15.33;;;10.87;;
35891;SDS011;21993;42.672;23.296;2022-07-10T03:07:53;11.40;;;9.97;;
35891;SDS011;21993;42.672;23.296;2022-07-10T03:10:19;11.17;;;9.97;;
35891;SDS011;21993;42.672;23.296;2022-07-10T03:12:45;12.70;;;10.43;;
35891;SDS011;21993;42.672;23.296;2022-07-10T03:15:13;11.17;;;9.97;;
35891;SDS011;21993;42.672;23.296;2022-07-10T03:17:39;11.07;;;10.07;;
35891;SDS011;21993;42.672;23.296;2022-07-10T03:20:05;11.27;;;9.90;;
35891;SDS011;21993;42.672;23.296;2022-07-10T03:22:31;13.10;;;10.60;;
35891;SDS011;21993;42.672;23.296;2022-07-10T03:24:57;13.03;;;11.27;;
35891;SDS011;21993;42.672;23.296;2022-07-10T03:27:23;15.70;;;10.67;;
35891;SDS011;21993;42.672;23.296;2022-07-10T03:29:48;12.70;;;10.43;;
35891;SDS011;21993;42.672;23.296;2022-07-10T03:32:14;12.07;;;10.50;;
35891;SDS011;21993;42.672;23.296;2022-07-10T03:34:39;12.57;;;10.20;;
35891;SDS011;21993;42.672;23.296;2022-07-10T03:37:05;11.40;;;9.60;;
35891;SDS011;21993;42.672;23.296;2022-07-10T03:39:30;15.00;;;10.33;;
35891;SDS011;21993;42.672;23.296;2022-07-10T03:41:56;13.33;;;11.23;;
35891;SDS011;21993;42.672;23.296;2022-07-10T03:44:21;12.73;;;11.20;;
35891;SDS011;21993;42.672;23.296;2022-07-10T03:46:47;12.07;;;9.60;;
35891;SDS011;21993;42.672;23.296;2022-07-10T03:49:12;11.17;;;10.07;;
35891;SDS011;21993;42.672;23.296;2022-07-10T03:51:38;11.20;;;10.10;;
35891;SDS011;21993;42.672;23.296;2022-07-10T03:54:03;15.50;;;10.40;;
35891;SDS011;21993;42.672;23.296;2022-07-10T03:56:29;13.17;;;10.50;;
35891;SDS011;21993;42.672;23.296;2022-07-10T03:59:13;12.27;;;10.60;;
35891;SDS011;21993;42.672;23.296;2022-07-10T04:01:38;13.00;;;10.47;;
35891;SDS011;21993;42.672;23.296;2022-07-10T04:04:04;12.40;;;10.47;;
35891;SDS011;21993;42.672;23.296;2022-07-10T04:06:29;11.97;;;10.10;;
35891;SDS011;21993;42.672;23.296;2022-07-10T04:08:55;13.73;;;10.13;;
35891;SDS011;21993;42.672;23.296;2022-07-10T04:11:20;11.20;;;10.07;;
35891;SDS011;21993;42.672;23.296;2022-07-10T04:13:46;10.60;;;9.50;;
35891;SDS011;21993;42.672;23.296;2022-07-10T04:16:11;10.37;;;9.27;;
35891;SDS011;21993;42.672;23.296;2022-07-10T04:18:38;13.50;;;10.30;;
35891;SDS011;21993;42.672;23.296;2022-07-10T04:21:04;11.43;;;10.23;;
35891;SDS011;21993;42.672;23.296;2022-07-10T04:23:31;12.13;;;10.93;;
35891;SDS011;21993;42.672;23.296;2022-07-10T04:25:57;11.50;;;10.30;;
35891;SDS011;21993;42.672;23.296;2022-07-10T04:28:23;11.17;;;9.93;;
35891;SDS011;21993;42.672;23.296;2022-07-10T04:30:48;13.77;;;9.83;;
35891;SDS011;21993;42.672;23.296;2022-07-10T04:33:14;11.33;;;10.07;;
35891;SDS011;21993;42.672;23.296;2022-07-10T04:35:39;12.10;;;9.10;;
35891;SDS011;21993;42.672;23.296;2022-07-10T04:38:05;10.10;;;8.70;;
35891;SDS011;21993;42.672;23.296;2022-07-10T04:40:31;10.90;;;8.53;;
35891;SDS011;21993;42.672;23.296;2022-07-10T04:42:56;12.73;;;8.93;;
35891;SDS011;21993;42.672;23.296;2022-07-10T04:45:22;9.60;;;8.63;;
35891;SDS011;21993;42.672;23.296;2022-07-10T04:47:47;9.73;;;8.73;;
35891;SDS011;21993;42.672;23.296;2022-07-10T04:50:13;9.00;;;8.10;;
35891;SDS011;21993;42.672;23.296;2022-07-10T04:52:38;10.10;;;8.83;;
35891;SDS011;21993;42.672;23.296;2022-07-10T04:55:04;10.33;;;8.60;;
35891;SDS011;21993;42.672;23.296;2022-07-10T04:57:29;11.20;;;9.40;;
35891;SDS011;21993;42.672;23.296;2022-07-10T04:59:55;13.53;;;8.43;;
35891;SDS011;21993;42.672;23.296;2022-07-10T05:02:21;9.27;;;8.37;;
35891;SDS011;21993;42.672;23.296;2022-07-10T05:04:47;9.47;;;8.37;;
35891;SDS011;21993;42.672;23.296;2022-07-10T05:07:13;9.10;;;7.83;;
35891;SDS011;21993;42.672;23.296;2022-07-10T05:09:39;9.87;;;8.23;;
35891;SDS011;21993;42.672;23.296;2022-07-10T05:12:05;9.17;;;8.27;;
35891;SDS011;21993;42.672;23.296;2022-07-10T05:14:31;9.17;;;8.20;;
35891;SDS011;21993;42.672;23.296;2022-07-10T05:16:57;13.83;;;8.50;;
35891;SDS011;21993;42.672;23.296;2022-07-10T05:19:22;8.10;;;7.40;;
35891;SDS011;21993;42.672;23.296;2022-07-10T05:21:48;9.23;;;7.60;;
35891;SDS011;21993;42.672;23.296;2022-07-10T05:24:13;8.57;;;7.40;;
35891;SDS011;21993;42.672;23.296;2022-07-10T05:26:39;9.03;;;8.23;;
35891;SDS011;21993;42.672;23.296;2022-07-10T05:29:05;9.60;;;8.07;;
35891;SDS011;21993;42.672;23.296;2022-07-10T05:31:30;8.90;;;8.00;;
35891;SDS011;21993;42.672;23.296;2022-07-10T05:33:56;9.80;;;7.43;;
35891;SDS011;21993;42.672;23.296;2022-07-10T05:36:21;10.10;;;8.20;;
35891;SDS011;21993;42.672;23.296;2022-07-10T05:38:47;8.80;;;7.83;;
35891;SDS011;21993;42.672;23.296;2022-07-10T05:41:12;10.13;;;8.13;;
35891;SDS011;21993;42.672;23.296;2022-07-10T05:43:38;9.63;;;8.63;;
35891;SDS011;21993;42.672;23.296;2022-07-10T05:46:03;8.70;;;7.73;;
35891;SDS011;21993;42.672;23.296;2022-07-10T05:48:30;10.10;;;7.47;;
35891;SDS011;21993;42.672;23.296;2022-07-10T05:50:56;10.30;;;7.73;;
35891;SDS011;21993;42.672;23.296;2022-07-10T05:53:21;9.87;;;7.67;;
35891;SDS011;21993;42.672;23.296;2022-07-10T05:55:47;9.27;;;7.43;;
35891;SDS011;21993;42.672;23.296;2022-07-10T05:58:13;8.93;;;7.43;;
35891;SDS011;21993;42.672;23.296;2022-07-10T06:00:39;7.77;;;7.00;;
35891;SDS011;21993;42.672;23.296;2022-07-10T06:03:04;7.67;;;6.87;;
35891;SDS011;21993;42.672;23.296;2022-07-10T06:05:30;8.17;;;7.37;;
35891;SDS011;21993;42.672;23.296;2022-07-10T06:07:56;7.97;;;7.17;;
35891;SDS011;21993;42.672;23.296;2022-07-10T06:10:21;7.43;;;6.73;;
35891;SDS011;21993;42.672;23.296;2022-07-10T06:12:47;7.37;;;6.37;;
35891;SDS011;21993;42.672;23.296;2022-07-10T06:15:13;7.97;;;6.60;;
35891;SDS011;21993;42.672;23.296;2022-07-10T06:17:38;7.10;;;6.40;;
35891;SDS011;21993;42.672;23.296;2022-07-10T06:20:04;7.13;;;6.43;;
35891;SDS011;21993;42.672;23.296;2022-07-10T06:22:30;9.47;;;6.67;;
35891;SDS011;21993;42.672;23.296;2022-07-10T06:24:56;7.37;;;6.03;;
35891;SDS011;21993;42.672;23.296;2022-07-10T06:27:25;8.57;;;5.77;;
35891;SDS011;21993;42.672;23.296;2022-07-10T06:29:51;7.93;;;5.93;;
35891;SDS011;21993;42.672;23.296;2022-07-10T06:32:16;7.00;;;6.03;;
35891;SDS011;21993;42.672;23.296;2022-07-10T06:34:42;7.67;;;6.03;;
35891;SDS011;21993;42.672;23.296;2022-07-10T06:37:07;6.50;;;5.80;;
35891;SDS011;21993;42.672;23.296;2022-07-10T06:39:33;6.90;;;5.87;;
35891;SDS011;21993;42.672;23.296;2022-07-10T06:42:05;7.80;;;6.63;;
35891;SDS011;21993;42.672;23.296;2022-07-10T06:44:31;6.20;;;5.60;;
35891;SDS011;21993;42.672;23.296;2022-07-10T06:46:57;7.20;;;6.20;;
35891;SDS011;21993;42.672;23.296;2022-07-10T06:49:42;6.93;;;5.73;;
35891;SDS011;21993;42.672;23.296;2022-07-10T06:52:09;6.67;;;6.00;;
35891;SDS011;21993;42.672;23.296;2022-07-10T06:54:35;6.93;;;5.47;;
35891;SDS011;21993;42.672;23.296;2022-07-10T06:57:01;6.70;;;6.10;;
35891;SDS011;21993;42.672;23.296;2022-07-10T06:59:27;6.00;;;4.83;;
35891;SDS011;21993;42.672;23.296;2022-07-10T07:01:53;7.27;;;5.47;;
35891;SDS011;21993;42.672;23.296;2022-07-10T07:04:19;11.67;;;4.97;;
35891;SDS011;21993;42.672;23.296;2022-07-10T07:06:44;5.40;;;4.90;;
35891;SDS011;21993;42.672;23.296;2022-07-10T07:09:10;6.43;;;5.90;;
35891;SDS011;21993;42.672;23.296;2022-07-10T07:11:36;5.80;;;5.30;;
35891;SDS011;21993;42.672;23.296;2022-07-10T07:14:01;5.40;;;4.90;;
35891;SDS011;21993;42.672;23.296;2022-07-10T07:16:27;8.43;;;5.17;;
35891;SDS011;21993;42.672;23.296;2022-07-10T07:19:03;5.57;;;5.10;;
35891;SDS011;21993;42.672;23.296;2022-07-10T07:21:30;6.53;;;5.50;;
35891;SDS011;21993;42.672;23.296;2022-07-10T07:24:15;6.57;;;4.90;;
35891;SDS011;21993;42.672;23.296;2022-07-10T07:26:40;7.10;;;5.43;;
35891;SDS011;21993;42.672;23.296;2022-07-10T07:29:07;8.83;;;5.60;;
35891;SDS011;21993;42.672;23.296;2022-07-10T07:31:32;6.70;;;5.63;;
35891;SDS011;21993;42.672;23.296;2022-07-10T07:33:58;5.57;;;5.10;;
35891;SDS011;21993;42.672;23.296;2022-07-10T07:36:23;5.33;;;4.83;;
35891;SDS011;21993;42.672;23.296;2022-07-10T07:38:48;5.10;;;4.70;;
35891;SDS011;21993;42.672;23.296;2022-07-10T07:41:14;6.70;;;4.97;;
35891;SDS011;21993;42.672;23.296;2022-07-10T07:43:40;6.97;;;4.77;;
35891;SDS011;21993;42.672;23.296;2022-07-10T07:46:06;6.90;;;5.23;;
35891;SDS011;21993;42.672;23.296;2022-07-10T07:48:31;6.63;;;6.03;;
35891;SDS011;21993;42.672;23.296;2022-07-10T07:50:57;10.00;;;5.70;;
35891;SDS011;21993;42.672;23.296;2022-07-10T07:53:23;7.10;;;4.87;;
35891;SDS011;21993;42.672;23.296;2022-07-10T07:55:48;5.83;;;4.23;;
35891;SDS011;21993;42.672;23.296;2022-07-10T07:58:14;5.93;;;4.50;;
35891;SDS011;21993;42.672;23.296;2022-07-10T08:00:39;6.53;;;5.00;;
35891;SDS011;21993;42.672;23.296;2022-07-10T08:03:05;5.47;;;4.37;;
35891;SDS011;21993;42.672;23.296;2022-07-10T08:05:30;5.13;;;4.60;;
35891;SDS011;21993;42.672;23.296;2022-07-10T08:07:56;8.47;;;5.30;;
35891;SDS011;21993;42.672;23.296;2022-07-10T08:10:24;6.80;;;4.50;;
35891;SDS011;21993;42.672;23.296;2022-07-10T08:12:51;7.73;;;4.87;;
35891;SDS011;21993;42.672;23.296;2022-07-10T08:15:18;7.13;;;4.63;;
35891;SDS011;21993;42.672;23.296;2022-07-10T08:17:51;7.03;;;4.50;;
35891;SDS011;21993;42.672;23.296;2022-07-10T08:20:21;8.73;;;4.80;;
35891;SDS011;21993;42.672;23.296;2022-07-10T08:22:47;6.27;;;4.70;;
35891;SDS011;21993;42.672;23.296;2022-07-10T08:25:13;7.33;;;4.20;;
35891;SDS011;21993;42.672;23.296;2022-07-10T08:27:39;8.80;;;4.20;;
35891;SDS011;21993;42.672;23.296;2022-07-10T08:30:05;5.23;;;4.73;;
35891;SDS011;21993;42.672;23.296;2022-07-10T08:32:33;4.60;;;4.20;;
35891;SDS011;21993;42.672;23.296;2022-07-10T08:34:59;4.60;;;4.20;;
35891;SDS011;21993;42.672;23.296;2022-07-10T08:37:25;6.27;;;4.43;;
35891;SDS011;21993;42.672;23.296;2022-07-10T08:39:50;3.77;;;3.47;;
35891;SDS011;21993;42.672;23.296;2022-07-10T08:42:16;5.73;;;3.97;;
35891;SDS011;21993;42.672;23.296;2022-07-10T08:44:43;5.23;;;4.10;;
35891;SDS011;21993;42.672;23.296;2022-07-10T08:47:08;6.40;;;4.10;;
35891;SDS011;21993;42.672;23.296;2022-07-10T08:49:36;4.87;;;4.37;;
35891;SDS011;21993;42.672;23.296;2022-07-10T08:52:06;5.63;;;4.40;;
35891;SDS011;21993;42.672;23.296;2022-07-10T08:54:36;4.40;;;4.00;;
35891;SDS011;21993;42.672;23.296;2022-07-10T08:57:04;4.47;;;4.07;;
35891;SDS011;21993;42.672;23.296;2022-07-10T08:59:30;5.37;;;4.33;;
35891;SDS011;21993;42.672;23.296;2022-07-10T09:01:56;5.33;;;4.00;;
35891;SDS011;21993;42.672;23.296;2022-07-10T09:04:23;5.47;;;4.60;;
35891;SDS011;21993;42.672;23.296;2022-07-10T09:06:51;7.83;;;4.50;;
35891;SDS011;21993;42.672;23.296;2022-07-10T09:09:17;6.40;;;5.10;;
35891;SDS011;21993;42.672;23.296;2022-07-10T09:11:44;5.20;;;4.70;;
35891;SDS011;21993;42.672;23.296;2022-07-10T09:14:18;6.00;;;5.03;;
35891;SDS011;21993;42.672;23.296;2022-07-10T09:16:49;7.97;;;4.60;;
35891;SDS011;21993;42.672;23.296;2022-07-10T09:19:25;5.23;;;4.57;;
35891;SDS011;21993;42.672;23.296;2022-07-10T09:21:54;9.57;;;4.73;;
35891;SDS011;21993;42.672;23.296;2022-07-10T09:24:26;5.77;;;4.40;;
35891;SDS011;21993;42.672;23.296;2022-07-10T09:26:59;5.07;;;4.07;;
35891;SDS011;21993;42.672;23.296;2022-07-10T09:29:28;4.53;;;4.13;;
35891;SDS011;21993;42.672;23.296;2022-07-10T09:32:00;4.50;;;4.10;;
35891;SDS011;21993;42.672;23.296;2022-07-10T09:34:43;5.23;;;4.00;;
35891;SDS011;21993;42.672;23.296;2022-07-10T09:39:54;4.33;;;3.93;;
35891;SDS011;21993;42.672;23.296;2022-07-10T09:42:28;6.10;;;3.70;;
35891;SDS011;21993;42.672;23.296;2022-07-10T09:45:12;5.00;;;3.87;;
35891;SDS011;21993;42.672;23.296;2022-07-10T09:52:52;4.63;;;3.50;;
35891;SDS011;21993;42.672;23.296;2022-07-10T09:55:21;5.17;;;4.40;;
35891;SDS011;21993;42.672;23.296;2022-07-10T09:58:01;3.80;;;3.50;;
35891;SDS011;21993;42.672;23.296;2022-07-10T10:00:31;5.20;;;3.47;;
35891;SDS011;21993;42.672;23.296;2022-07-10T10:03:08;5.90;;;3.40;;
35891;SDS011;21993;42.672;23.296;2022-07-10T10:08:16;3.83;;;3.53;;
35891;SDS011;21993;42.672;23.296;2022-07-10T10:10:43;4.70;;;3.50;;
35891;SDS011;21993;42.672;23.296;2022-07-10T10:13:20;5.40;;;3.93;;
35891;SDS011;21993;42.672;23.296;2022-07-10T10:15:47;5.40;;;4.23;;
35891;SDS011;21993;42.672;23.296;2022-07-10T10:18:21;5.80;;;3.83;;
35891;SDS011;21993;42.672;23.296;2022-07-10T10:20:48;6.47;;;3.53;;
35891;SDS011;21993;42.672;23.296;2022-07-10T10:23:18;6.07;;;3.67;;
35891;SDS011;21993;42.672;23.296;2022-07-10T10:25:46;5.93;;;3.90;;
35891;SDS011;21993;42.672;23.296;2022-07-10T10:28:12;4.63;;;4.00;;
35891;SDS011;21993;42.672;23.296;2022-07-10T10:30:39;6.17;;;3.47;;
35891;SDS011;21993;42.672;23.296;2022-07-10T10:35:57;5.13;;;4.13;;
35891;SDS011;21993;42.672;23.296;2022-07-10T10:38:23;5.00;;;4.13;;
35891;SDS011;21993;42.672;23.296;2022-07-10T10:40:48;4.90;;;3.83;;
35891;SDS011;21993;42.672;23.296;2022-07-10T10:43:21;4.63;;;3.70;;
35891;SDS011;21993;42.672;23.296;2022-07-10T10:45:48;3.73;;;3.20;;
35891;SDS011;21993;42.672;23.296;2022-07-10T10:48:17;5.93;;;3.90;;
35891;SDS011;21993;42.672;23.296;2022-07-10T10:50:46;3.70;;;3.40;;
35891;SDS011;21993;42.672;23.296;2022-07-10T10:53:18;3.83;;;3.53;;
35891;SDS011;21993;42.672;23.296;2022-07-10T10:58:42;4.57;;;3.40;;
35891;SDS011;21993;42.672;23.296;2022-07-10T11:06:45;4.50;;;3.30;;
35891;SDS011;21993;42.672;23.296;2022-07-10T11:11:58;3.60;;;3.30;;
35891;SDS011;21993;42.672;23.296;2022-07-10T11:14:29;4.20;;;3.40;;
35891;SDS011;21993;42.672;23.296;2022-07-10T11:16:55;3.87;;;3.47;;
35891;SDS011;21993;42.672;23.296;2022-07-10T11:19:22;4.63;;;3.77;;
35891;SDS011;21993;42.672;23.296;2022-07-10T11:27:36;3.60;;;3.30;;
35891;SDS011;21993;42.672;23.296;2022-07-10T11:30:24;3.33;;;3.07;;
35891;SDS011;21993;42.672;23.296;2022-07-10T11:32:51;6.10;;;3.80;;
35891;SDS011;21993;42.672;23.296;2022-07-10T11:35:17;4.87;;;3.47;;
35891;SDS011;21993;42.672;23.296;2022-07-10T11:37:53;5.47;;;3.30;;
35891;SDS011;21993;42.672;23.296;2022-07-10T11:40:19;5.57;;;3.47;;
35891;SDS011;21993;42.672;23.296;2022-07-10T11:42:48;4.03;;;3.63;;
35891;SDS011;21993;42.672;23.296;2022-07-10T11:45:22;8.40;;;3.40;;
35891;SDS011;21993;42.672;23.296;2022-07-10T11:47:48;3.87;;;3.53;;
35891;SDS011;21993;42.672;23.296;2022-07-10T11:50:14;3.40;;;3.10;;
35891;SDS011;21993;42.672;23.296;2022-07-10T11:52:40;4.10;;;3.17;;
35891;SDS011;21993;42.672;23.296;2022-07-10T11:55:15;5.40;;;3.83;;
35891;SDS011;21993;42.672;23.296;2022-07-10T11:57:41;6.20;;;3.60;;
35891;SDS011;21993;42.672;23.296;2022-07-10T12:00:30;8.83;;;3.37;;
35891;SDS011;21993;42.672;23.296;2022-07-10T12:02:56;4.00;;;3.23;;
35891;SDS011;21993;42.672;23.296;2022-07-10T12:05:39;4.17;;;3.50;;
35891;SDS011;21993;42.672;23.296;2022-07-10T12:08:05;3.40;;;3.10;;
35891;SDS011;21993;42.672;23.296;2022-07-10T12:10:32;3.17;;;2.87;;
35891;SDS011;21993;42.672;23.296;2022-07-10T12:13:06;6.37;;;2.90;;
35891;SDS011;21993;42.672;23.296;2022-07-10T12:15:33;3.80;;;2.40;;
35891;SDS011;21993;42.672;23.296;2022-07-10T12:18:11;3.33;;;3.00;;
35891;SDS011;21993;42.672;23.296;2022-07-10T12:20:44;12.27;;;5.93;;
35891;SDS011;21993;42.672;23.296;2022-07-10T12:23:12;3.60;;;3.30;;
35891;SDS011;21993;42.672;23.296;2022-07-10T12:25:41;3.53;;;2.97;;
35891;SDS011;21993;42.672;23.296;2022-07-10T12:28:08;5.20;;;3.00;;
35891;SDS011;21993;42.672;23.296;2022-07-10T12:30:44;4.10;;;3.10;;
35891;SDS011;21993;42.672;23.296;2022-07-10T12:33:12;4.30;;;2.97;;
35891;SDS011;21993;42.672;23.296;2022-07-10T12:41:10;5.07;;;3.67;;
35891;SDS011;21993;42.672;23.296;2022-07-10T12:43:36;3.60;;;3.00;;
35891;SDS011;21993;42.672;23.296;2022-07-10T12:49:00;2.70;;;2.50;;
35891;SDS011;21993;42.672;23.296;2022-07-10T12:51:44;2.73;;;2.53;;
35891;SDS011;21993;42.672;23.296;2022-07-10T12:54:33;4.27;;;2.70;;
35891;SDS011;21993;42.672;23.296;2022-07-10T12:56:59;3.30;;;2.53;;
35891;SDS011;21993;42.672;23.296;2022-07-10T12:59:26;3.97;;;2.90;;
35891;SDS011;21993;42.672;23.296;2022-07-10T13:01:52;3.77;;;3.00;;
35891;SDS011;21993;42.672;23.296;2022-07-10T13:04:22;2.87;;;2.67;;
35891;SDS011;21993;42.672;23.296;2022-07-10T13:06:49;2.90;;;2.60;;
35891;SDS011;21993;42.672;23.296;2022-07-10T13:09:19;3.43;;;2.10;;
35891;SDS011;21993;42.672;23.296;2022-07-10T13:11:49;5.70;;;2.80;;
35891;SDS011;21993;42.672;23.296;2022-07-10T13:14:15;2.60;;;2.33;;
35891;SDS011;21993;42.672;23.296;2022-07-10T13:16:41;4.37;;;2.40;;
35891;SDS011;21993;42.672;23.296;2022-07-10T13:19:06;5.87;;;2.00;;
35891;SDS011;21993;42.672;23.296;2022-07-10T13:21:32;3.13;;;2.00;;
35891;SDS011;21993;42.672;23.296;2022-07-10T13:23:58;5.97;;;2.10;;
35891;SDS011;21993;42.672;23.296;2022-07-10T13:26:23;1.80;;;1.70;;
35891;SDS011;21993;42.672;23.296;2022-07-10T13:28:49;6.30;;;2.53;;
35891;SDS011;21993;42.672;23.296;2022-07-10T13:31:14;2.23;;;2.03;;
35891;SDS011;21993;42.672;23.296;2022-07-10T13:33:40;2.60;;;2.37;;
35891;SDS011;21993;42.672;23.296;2022-07-10T13:36:05;2.50;;;2.03;;
35891;SDS011;21993;42.672;23.296;2022-07-10T13:38:31;3.73;;;2.40;;
35891;SDS011;21993;42.672;23.296;2022-07-10T13:40:57;2.40;;;2.20;;
35891;SDS011;21993;42.672;23.296;2022-07-10T13:43:23;6.93;;;2.40;;
35891;SDS011;21993;42.672;23.296;2022-07-10T13:45:56;4.80;;;2.50;;
35891;SDS011;21993;42.672;23.296;2022-07-10T13:48:22;1.90;;;1.70;;
35891;SDS011;21993;42.672;23.296;2022-07-10T13:50:48;4.73;;;2.33;;
35891;SDS011;21993;42.672;23.296;2022-07-10T13:53:15;2.80;;;1.70;;
35891;SDS011;21993;42.672;23.296;2022-07-10T13:55:44;2.10;;;1.90;;
35891;SDS011;21993;42.672;23.296;2022-07-10T13:58:11;4.07;;;2.00;;
35891;SDS011;21993;42.672;23.296;2022-07-10T14:00:37;3.23;;;1.90;;
35891;SDS011;21993;42.672;23.296;2022-07-10T14:03:03;4.37;;;1.97;;
35891;SDS011;21993;42.672;23.296;2022-07-10T14:05:29;3.60;;;2.53;;
35891;SDS011;21993;42.672;23.296;2022-07-10T14:07:55;2.47;;;2.10;;
35891;SDS011;21993;42.672;23.296;2022-07-10T14:10:21;4.20;;;2.20;;
35891;SDS011;21993;42.672;23.296;2022-07-10T14:12:47;2.20;;;2.00;;
35891;SDS011;21993;42.672;23.296;2022-07-10T14:15:12;2.33;;;2.10;;
35891;SDS011;21993;42.672;23.296;2022-07-10T14:17:38;3.60;;;2.17;;
35891;SDS011;21993;42.672;23.296;2022-07-10T14:20:04;3.73;;;2.13;;
35891;SDS011;21993;42.672;23.296;2022-07-10T14:22:30;2.07;;;1.97;;
35891;SDS011;21993;42.672;23.296;2022-07-10T14:24:55;2.53;;;1.90;;
35891;SDS011;21993;42.672;23.296;2022-07-10T14:27:23;3.27;;;2.20;;
35891;SDS011;21993;42.672;23.296;2022-07-10T14:29:49;3.23;;;1.83;;
35891;SDS011;21993;42.672;23.296;2022-07-10T14:32:14;2.20;;;2.00;;
35891;SDS011;21993;42.672;23.296;2022-07-10T14:34:40;2.57;;;2.37;;
35891;SDS011;21993;42.672;23.296;2022-07-10T14:37:05;5.20;;;2.57;;
35891;SDS011;21993;42.672;23.296;2022-07-10T14:39:31;5.77;;;2.20;;
35891;SDS011;21993;42.672;23.296;2022-07-10T14:41:56;4.37;;;2.83;;
35891;SDS011;21993;42.672;23.296;2022-07-10T14:44:22;3.10;;;2.47;;
35891;SDS011;21993;42.672;23.296;2022-07-10T14:46:47;2.60;;;2.20;;
35891;SDS011;21993;42.672;23.296;2022-07-10T14:49:13;4.10;;;2.20;;
35891;SDS011;21993;42.672;23.296;2022-07-10T14:51:39;3.30;;;2.00;;
35891;SDS011;21993;42.672;23.296;2022-07-10T14:54:04;2.93;;;2.20;;
35891;SDS011;21993;42.672;23.296;2022-07-10T14:56:30;5.07;;;2.27;;
35891;SDS011;21993;42.672;23.296;2022-07-10T14:58:55;3.33;;;2.37;;
35891;SDS011;21993;42.672;23.296;2022-07-10T15:01:21;3.00;;;2.43;;
35891;SDS011;21993;42.672;23.296;2022-07-10T15:03:46;4.27;;;2.23;;
35891;SDS011;21993;42.672;23.296;2022-07-10T15:06:12;2.43;;;2.20;;